createdAt,value
2022-10-11T00:01:02.272Z,99701.80
2022-10-11T00:03:36.601Z,99702.84
2022-10-11T00:06:06.614Z,99704.76
2022-10-11T00:08:35.717Z,99699.20
2022-10-11T00:11:07.881Z,99698.98
2022-10-11T00:13:36.262Z,99699.48
2022-10-11T00:16:09.829Z,99700.52
2022-10-11T00:18:39.039Z,99703.14
2022-10-11T00:21:10.816Z,99705.40
2022-10-11T00:23:39.299Z,99701.21
2022-10-11T00:26:09.832Z,99703.65
2022-10-11T00:28:38.588Z,99704.33
2022-10-11T00:31:09.273Z,99700.67
2022-10-11T00:33:37.626Z,99699.80
2022-10-11T00:36:07.337Z,99694.05
2022-10-11T00:38:35.815Z,99691.44
2022-10-11T00:41:04.092Z,99691.80
2022-10-11T00:43:33.086Z,99694.40
2022-10-11T00:46:24.811Z,99694.02
2022-10-11T00:49:07.523Z,99691.77
2022-10-11T00:51:58.942Z,99695.27
2022-10-11T00:54:32.032Z,99696.47
2022-10-11T00:57:07.374Z,99695.77
2022-10-11T00:59:40.543Z,99693.16
2022-10-11T01:02:10.275Z,99691.95
2022-10-11T01:04:38.550Z,99689.86
2022-10-11T01:07:06.929Z,99687.23
2022-10-11T01:09:35.410Z,99687.23
2022-10-11T01:12:12.495Z,99687.58
2022-10-11T01:14:43.637Z,99684.27
2022-10-11T01:17:32.703Z,99682.52
2022-10-11T01:20:26.884Z,99679.20
2022-10-11T01:23:19.325Z,99681.13
2022-10-11T01:26:13.303Z,99686.69
2022-10-11T01:28:56.714Z,99683.20
2022-10-11T01:31:50.818Z,99679.69
2022-10-11T01:34:37.310Z,99681.79
2022-10-11T01:37:15.222Z,99678.99
2022-10-11T01:40:06.646Z,99681.40
2022-10-11T01:42:39.321Z,99680.88
2022-10-11T01:45:12.797Z,99684.70
2022-10-11T01:47:42.733Z,99681.39
2022-10-11T01:50:38.453Z,99682.96
2022-10-11T01:53:16.559Z,99684.88
2022-10-11T01:55:55.364Z,99691.48
2022-10-11T01:58:36.869Z,99692.88
2022-10-11T02:01:07.759Z,99696.54
2022-10-11T02:04:02.583Z,99698.09
2022-10-11T02:06:45.935Z,99698.61
2022-10-11T02:09:30.302Z,99695.46
2022-10-11T02:12:04.197Z,99696.86
2022-10-11T02:14:36.774Z,99695.12
2022-10-11T02:17:10.987Z,99691.64
2022-10-11T02:19:44.386Z,99690.24
2022-10-11T02:22:26.590Z,99695.13
2022-10-11T02:24:59.264Z,99697.92
2022-10-11T02:27:33.583Z,99695.48
2022-10-11T02:30:05.544Z,99694.44
2022-10-11T02:32:35.972Z,99697.41
2022-10-11T02:35:04.806Z,99693.23
2022-10-11T02:37:47.782Z,99694.10
2022-10-11T02:40:24.868Z,99691.66
2022-10-11T02:43:12.802Z,99693.93
2022-10-11T02:45:55.106Z,99696.71
2022-10-11T02:48:25.402Z,99702.98
2022-10-11T02:50:54.526Z,99707.02
2022-10-11T02:53:24.130Z,99708.73
2022-10-11T02:55:53.946Z,99704.39
2022-10-11T02:58:23.450Z,99706.64
2022-10-11T03:00:51.727Z,99711.00
2022-10-11T03:03:19.803Z,99712.02
2022-10-11T03:05:47.869Z,99710.10
2022-10-11T03:08:17.754Z,99708.87
2022-10-11T03:10:45.753Z,99714.43
2022-10-11T03:13:17.878Z,99715.46
2022-10-11T03:16:02.410Z,99714.59
2022-10-11T03:18:31.895Z,99717.20
2022-10-11T03:21:00.177Z,99717.90
2022-10-11T03:23:28.432Z,99716.68
2022-10-11T03:25:56.606Z,99718.95
2022-10-11T03:28:24.786Z,99721.20
2022-10-11T03:30:53.362Z,99726.77
2022-10-11T03:33:21.435Z,99727.98
2022-10-11T03:35:50.428Z,99729.52
2022-10-11T03:38:22.226Z,99734.75
2022-10-11T03:40:50.153Z,99735.11
2022-10-11T03:43:18.222Z,99738.92
2022-10-11T03:45:46.504Z,99737.02
2022-10-11T03:48:15.061Z,99735.63
2022-10-11T03:50:43.055Z,99738.24
2022-10-11T03:53:11.713Z,99744.49
2022-10-11T03:55:40.651Z,99745.19
2022-10-11T03:58:09.384Z,99746.74
2022-10-11T04:00:37.903Z,99743.98
2022-10-11T04:03:05.970Z,99744.36
2022-10-11T04:05:33.948Z,99748.20
2022-10-11T04:08:02.216Z,99752.22
2022-10-11T04:10:31.721Z,99750.13
2022-10-11T04:12:59.997Z,99749.09
2022-10-11T04:15:27.966Z,99753.45
2022-10-11T04:17:55.939Z,99755.73
2022-10-11T04:20:23.904Z,99755.02
2022-10-11T04:22:51.977Z,99752.23
2022-10-11T04:25:20.252Z,99748.40
2022-10-11T04:27:48.834Z,99749.95
2022-10-11T04:30:17.522Z,99749.43
2022-10-11T04:32:45.694Z,99748.91
2022-10-11T04:35:14.259Z,99748.73
2022-10-11T04:37:42.245Z,99747.34
2022-10-11T04:40:11.406Z,99749.06
2022-10-11T04:42:39.517Z,99755.33
2022-10-11T04:45:09.537Z,99755.48
2022-10-11T04:47:38.218Z,99755.98
2022-10-11T04:50:06.805Z,99758.23
2022-10-11T04:52:34.873Z,99760.30
2022-10-11T04:55:02.842Z,99759.80
2022-10-11T04:57:30.810Z,99760.20
2022-10-11T04:59:58.779Z,99765.60
2022-10-11T05:02:26.884Z,99769.08
2022-10-11T05:04:55.126Z,99771.35
2022-10-11T05:07:23.095Z,99771.52
2022-10-11T05:09:51.064Z,99773.27
2022-10-11T05:12:19.034Z,99773.45
2022-10-11T05:14:47.004Z,99779.38
2022-10-11T05:17:15.073Z,99781.46
2022-10-11T05:19:43.043Z,99779.20
2022-10-11T05:22:11.114Z,99780.60
2022-10-11T05:24:39.209Z,99782.36
2022-10-11T05:27:07.359Z,99785.33
2022-10-11T05:29:35.431Z,99787.08
2022-10-11T05:32:03.604Z,99791.27
2022-10-11T05:34:31.678Z,99797.19
2022-10-11T05:36:59.850Z,99795.11
2022-10-11T05:39:27.819Z,99801.08
2022-10-11T05:41:55.890Z,99805.63
2022-10-11T05:44:23.962Z,99803.90
2022-10-11T05:46:52.035Z,99805.67
2022-10-11T05:49:20.103Z,99808.83
2022-10-11T05:51:48.073Z,99813.54
2022-10-11T05:54:16.050Z,99812.52
2022-10-11T05:56:44.010Z,99811.98
2022-10-11T05:59:12.082Z,99820.53
2022-10-11T06:01:40.577Z,99824.19
2022-10-11T06:04:08.739Z,99831.68
2022-10-11T06:06:36.705Z,99838.13
2022-10-11T06:09:04.674Z,99845.45
2022-10-11T06:11:32.745Z,99842.82
2022-10-11T06:14:00.816Z,99846.84
2022-10-11T06:16:28.887Z,99855.27
2022-10-11T06:18:57.891Z,99857.91
2022-10-11T06:21:26.156Z,99858.11
2022-10-11T06:24:00.781Z,99862.65
2022-10-11T06:26:30.039Z,99863.35
2022-10-11T06:28:58.854Z,99867.38
2022-10-11T06:31:27.556Z,99873.29
2022-10-11T06:33:55.525Z,99879.06
2022-10-11T06:36:23.597Z,99883.59
2022-10-11T06:38:55.933Z,99878.52
2022-10-11T06:41:29.264Z,99885.16
2022-10-11T06:43:57.947Z,99885.02
2022-10-11T06:46:28.169Z,99893.05
2022-10-11T06:48:56.687Z,99892.38
2022-10-11T06:51:26.032Z,99894.13
2022-10-11T06:53:56.906Z,99896.77
2022-10-11T06:56:27.335Z,99898.52
2022-10-11T06:58:56.820Z,99898.88
2022-10-11T07:01:25.558Z,99904.98
2022-10-11T07:03:55.830Z,99909.00
2022-10-11T07:06:27.283Z,99911.09
2022-10-11T07:08:55.737Z,99912.50
2022-10-11T07:11:26.805Z,99909.73
2022-10-11T07:14:00.507Z,99911.48
2022-10-11T07:16:29.194Z,99912.17
2022-10-11T07:19:00.773Z,99916.73
2022-10-11T07:21:31.177Z,99919.52
2022-10-11T07:24:00.184Z,99923.89
2022-10-11T07:26:33.817Z,99920.94
2022-10-11T07:29:07.162Z,99922.35
2022-10-11T07:31:37.521Z,99924.64
2022-10-11T07:34:05.785Z,99923.59
2022-10-11T07:36:34.243Z,99929.20
2022-10-11T07:39:05.487Z,99927.98
2022-10-11T07:41:33.871Z,99932.70
2022-10-11T07:44:01.938Z,99939.32
2022-10-11T07:46:30.119Z,99937.77
2022-10-11T07:48:58.593Z,99937.59
2022-10-11T07:51:26.975Z,99943.02
2022-10-11T07:53:56.874Z,99940.92
2022-10-11T07:56:27.517Z,99940.58
2022-10-11T07:58:57.989Z,99940.92
2022-10-11T08:01:27.951Z,99937.42
2022-10-11T08:03:59.825Z,99939.20
2022-10-11T08:06:31.837Z,99937.45
2022-10-11T08:09:00.949Z,99939.55
2022-10-11T08:11:32.536Z,99944.08
2022-10-11T08:14:01.199Z,99945.83
2022-10-11T08:16:29.206Z,99948.28
2022-10-11T08:18:57.343Z,99950.38
2022-10-11T08:21:26.974Z,99952.10
2022-10-11T08:23:55.256Z,99949.13
2022-10-11T08:26:24.926Z,99954.89
2022-10-11T08:28:53.071Z,99955.23
2022-10-11T08:31:21.609Z,99956.97
2022-10-11T08:33:50.193Z,99953.11
2022-10-11T08:36:18.469Z,99949.95
2022-10-11T08:38:46.551Z,99951.69
2022-10-11T08:41:17.377Z,99956.59
2022-10-11T08:43:51.285Z,99962.54
2022-10-11T08:46:24.477Z,99961.98
2022-10-11T08:48:52.549Z,99963.35
2022-10-11T08:51:43.248Z,99961.59
2022-10-11T08:54:30.162Z,99961.06
2022-10-11T08:56:58.644Z,99962.11
2022-10-11T08:59:37.779Z,99964.21
2022-10-11T09:02:31.765Z,99966.85
2022-10-11T09:05:14.569Z,99962.46
2022-10-11T09:07:42.460Z,99963.34
2022-10-11T09:10:31.604Z,99969.62
2022-10-11T09:13:31.626Z,99970.33
2022-10-11T09:16:18.433Z,99967.52
2022-10-11T09:19:08.040Z,99965.77
2022-10-11T09:22:14.991Z,99973.13
2022-10-11T09:24:48.902Z,99971.73
2022-10-11T09:27:33.036Z,99971.55
2022-10-11T09:30:14.606Z,99972.59
2022-10-11T09:32:47.932Z,99972.38
2022-10-11T09:35:19.177Z,99973.42
2022-10-11T09:38:10.469Z,99975.16
2022-10-11T09:40:53.514Z,99974.42
2022-10-11T09:43:21.893Z,99969.52
2022-10-11T09:45:49.977Z,99969.50
2022-10-11T09:48:25.408Z,99968.28
2022-10-11T09:50:59.010Z,99971.77
2022-10-11T09:53:54.011Z,99974.58
2022-10-11T09:56:24.239Z,99978.05
2022-10-11T09:59:08.961Z,99979.77
2022-10-11T10:01:37.226Z,99978.18
2022-10-11T10:04:11.692Z,99976.07
2022-10-11T10:06:41.197Z,99975.02
2022-10-11T10:09:33.235Z,99971.70
2022-10-11T10:12:11.132Z,99976.93
2022-10-11T10:14:41.238Z,99978.48
2022-10-11T10:17:17.662Z,99977.44
2022-10-11T10:19:56.445Z,99973.23
2022-10-11T10:22:29.839Z,99972.52
2022-10-11T10:25:01.287Z,99973.05
2022-10-11T10:27:30.796Z,99975.47
2022-10-11T10:30:16.312Z,99971.27
2022-10-11T10:33:07.179Z,99976.16
2022-10-11T10:35:47.333Z,99972.83
2022-10-11T10:38:51.292Z,99978.41
2022-10-11T10:41:20.515Z,99977.14
2022-10-11T10:44:01.007Z,99979.92
2022-10-11T10:46:41.264Z,99988.50
2022-10-11T10:49:51.998Z,99990.77
2022-10-11T10:52:40.328Z,99990.39
2022-10-11T10:55:43.373Z,99992.28
2022-10-11T10:58:23.734Z,99991.89
2022-10-11T11:00:58.778Z,99992.36
2022-10-11T11:03:38.818Z,99988.63
2022-10-11T11:06:13.035Z,99991.95
2022-10-11T11:09:05.475Z,99991.95
2022-10-11T11:11:39.490Z,99988.77
2022-10-11T11:14:23.635Z,99990.69
2022-10-11T11:16:54.472Z,99989.61
2022-10-11T11:19:41.180Z,99988.39
2022-10-11T11:22:18.468Z,99989.26
2022-10-11T11:25:01.693Z,99990.31
2022-10-11T11:27:58.343Z,99987.64
2022-10-11T11:30:48.220Z,99986.02
2022-10-11T11:33:36.873Z,99986.49
2022-10-11T11:36:14.343Z,99983.99
2022-10-11T11:38:47.145Z,99983.61
2022-10-11T11:41:24.534Z,99986.40
2022-10-11T11:44:02.646Z,99984.63
2022-10-11T11:46:57.853Z,99979.73
2022-10-11T11:49:38.462Z,99981.29
2022-10-11T11:52:12.014Z,99979.36
2022-10-11T11:54:45.411Z,99980.41
2022-10-11T11:57:20.752Z,99978.13
2022-10-11T11:59:57.971Z,99979.66
2022-10-11T12:02:38.296Z,99980.33
2022-10-11T12:05:16.801Z,99977.27
2022-10-11T12:08:14.991Z,99973.90
2022-10-11T12:10:49.001Z,99974.23
2022-10-11T12:13:21.372Z,99972.27
2022-10-11T12:16:09.924Z,99971.87
2022-10-11T12:18:57.779Z,99968.59
2022-10-11T12:21:25.832Z,99965.41
2022-10-11T12:24:10.593Z,99966.61
2022-10-11T12:26:46.141Z,99964.63
2022-10-11T12:29:17.385Z,99970.70
2022-10-11T12:31:48.630Z,99967.83
2022-10-11T12:34:38.168Z,99968.30
2022-10-11T12:37:18.362Z,99968.42
2022-10-11T12:39:52.066Z,99971.91
2022-10-11T12:42:36.603Z,99969.56
2022-10-11T12:45:13.910Z,99970.34
2022-10-11T12:48:02.369Z,99969.42
2022-10-11T12:50:51.628Z,99968.33
2022-10-11T12:54:21.549Z,99970.02
2022-10-11T12:57:12.088Z,99972.08
2022-10-11T12:59:45.544Z,99975.55
2022-10-11T13:02:38.913Z,99981.32
2022-10-11T13:05:19.166Z,99980.98
2022-10-11T13:07:47.646Z,99990.30
2022-10-11T13:10:54.016Z,99991.84
2022-10-11T13:13:25.056Z,99993.66
2022-10-11T13:15:55.997Z,99992.66
2022-10-11T13:18:26.319Z,99997.64
2022-10-11T13:20:54.902Z,100000.84
2022-10-11T13:23:24.407Z,100002.48
2022-10-11T13:25:53.626Z,100003.73
2022-10-11T13:28:22.827Z,100004.82
2022-10-11T13:30:54.776Z,100005.39
2022-10-11T13:33:35.741Z,100012.45
2022-10-11T13:36:06.932Z,100008.84
2022-10-11T13:38:37.389Z,100009.08
2022-10-11T13:41:08.634Z,100011.59
2022-10-11T13:43:37.547Z,100006.70
2022-10-11T13:46:06.384Z,100008.64
2022-10-11T13:48:41.164Z,100020.09
2022-10-11T13:51:30.433Z,100019.59
2022-10-11T13:54:01.453Z,100019.11
2022-10-11T13:56:45.929Z,100023.67
2022-10-11T13:59:23.835Z,100032.23
2022-10-11T14:02:00.281Z,100032.60
2022-10-11T14:04:38.611Z,100036.33
2022-10-11T14:07:07.103Z,100035.29
2022-10-11T14:09:38.851Z,100035.83
2022-10-11T14:12:25.353Z,100037.29
2022-10-11T14:14:53.732Z,100038.36
2022-10-11T14:17:33.170Z,100040.50
2022-10-11T14:20:15.878Z,100039.51
2022-10-11T14:22:44.594Z,100042.00
2022-10-11T14:25:13.378Z,100042.38
2022-10-11T14:27:42.869Z,100043.65
2022-10-11T14:30:28.026Z,100047.05
2022-10-11T14:32:59.896Z,100044.80
2022-10-11T14:35:35.041Z,100046.95
2022-10-11T14:38:03.104Z,100051.02
2022-10-11T14:40:32.156Z,100047.39
2022-10-11T14:43:00.168Z,100046.55
2022-10-11T14:45:29.064Z,100047.29
2022-10-11T14:47:57.362Z,100047.48
2022-10-11T14:50:37.798Z,100052.94
2022-10-11T14:53:08.058Z,100054.55
2022-10-11T14:55:38.343Z,100054.89
2022-10-11T14:58:08.154Z,100053.70
2022-10-11T15:00:36.914Z,100059.14
2022-10-11T15:03:07.372Z,100059.70
2022-10-11T15:05:36.504Z,100063.75
2022-10-11T15:08:07.192Z,100069.56
2022-10-11T15:10:39.579Z,100072.01
2022-10-11T15:13:09.102Z,100070.98
2022-10-11T15:15:41.054Z,100072.40
2022-10-11T15:18:13.307Z,100068.74
2022-10-11T15:20:44.963Z,100069.81
2022-10-11T15:23:13.035Z,100068.61
2022-10-11T15:25:42.303Z,100070.73
2022-10-11T15:28:28.472Z,100077.05
2022-10-11T15:30:56.909Z,100078.27
2022-10-11T15:33:25.799Z,100080.39
2022-10-11T15:35:53.872Z,100084.23
2022-10-11T15:38:24.400Z,100084.25
2022-10-11T15:40:53.493Z,100092.30
2022-10-11T15:43:24.773Z,100091.60
2022-10-11T15:45:55.168Z,100098.10
2022-10-11T15:48:26.507Z,100101.26
2022-10-11T15:50:55.101Z,100103.21
2022-10-11T15:53:28.601Z,100107.25
2022-10-11T15:56:06.635Z,100109.52
2022-10-11T15:58:40.508Z,100116.18
2022-10-11T16:01:19.742Z,100120.39
2022-10-11T16:03:49.413Z,100122.15
2022-10-11T16:06:18.966Z,100125.30
2022-10-11T16:08:48.009Z,100124.77
2022-10-11T16:11:16.317Z,100125.66
2022-10-11T16:13:45.324Z,100131.06
2022-10-11T16:16:13.495Z,100135.62
2022-10-11T16:18:41.673Z,100141.74
2022-10-11T16:21:12.198Z,100142.97
2022-10-11T16:23:40.168Z,100144.36
2022-10-11T16:26:12.216Z,100146.63
2022-10-11T16:28:42.200Z,100150.64
2022-10-11T16:31:16.874Z,100151.34
2022-10-11T16:33:48.066Z,100150.30
2022-10-11T16:36:33.232Z,100146.63
2022-10-11T16:39:05.050Z,100152.05
2022-10-11T16:41:33.124Z,100155.20
2022-10-11T16:44:01.192Z,100155.71
2022-10-11T16:46:29.161Z,100156.42
2022-10-11T16:48:57.543Z,100160.97
2022-10-11T16:51:25.612Z,100161.30
2022-10-11T16:53:53.594Z,100164.96
2022-10-11T16:56:24.313Z,100166.52
2022-10-11T16:58:54.296Z,100170.19
2022-10-11T17:01:22.853Z,100169.13
2022-10-11T17:03:52.010Z,100168.60
2022-10-11T17:06:20.483Z,100171.23
2022-10-11T17:08:48.805Z,100165.45
2022-10-11T17:11:17.869Z,100167.54
2022-10-11T17:13:46.246Z,100169.27
2022-10-11T17:16:14.723Z,100168.52
2022-10-11T17:18:43.715Z,100169.90
2022-10-11T17:21:14.345Z,100178.42
2022-10-11T17:23:43.191Z,100177.36
2022-10-11T17:26:16.341Z,100180.30
2022-10-11T17:28:44.776Z,100184.48
2022-10-11T17:31:13.287Z,100186.04
2022-10-11T17:33:41.358Z,100186.35
2022-10-11T17:36:25.185Z,100190.36
2022-10-11T17:38:53.172Z,100189.48
2022-10-11T17:41:21.241Z,100191.55
2022-10-11T17:43:49.416Z,100192.23
2022-10-11T17:46:18.259Z,100194.48
2022-10-11T17:48:46.271Z,100195.48
2022-10-11T17:51:19.464Z,100193.02
2022-10-11T17:53:50.580Z,100195.77
2022-10-11T17:56:27.474Z,100195.23
2022-10-11T17:58:59.652Z,100198.17
2022-10-11T18:01:29.222Z,100202.16
2022-10-11T18:04:03.240Z,100210.16
2022-10-11T18:06:34.517Z,100207.88
2022-10-11T18:09:03.259Z,100210.84
2022-10-11T18:11:31.478Z,100212.02
2022-10-11T18:13:59.754Z,100213.89
2022-10-11T18:16:30.386Z,100213.51
2022-10-11T18:18:59.566Z,100213.98
2022-10-11T18:21:34.028Z,100220.08
2022-10-11T18:24:05.998Z,100220.77
2022-10-11T18:26:34.754Z,100221.23
2022-10-11T18:29:03.450Z,100224.02
2022-10-11T18:31:35.317Z,100227.65
2022-10-11T18:34:05.424Z,100226.41
2022-10-11T18:36:33.490Z,100234.93
2022-10-11T18:39:04.439Z,100232.30
2022-10-11T18:41:34.140Z,100234.17
2022-10-11T18:44:07.945Z,100234.31
2022-10-11T18:46:36.561Z,100232.20
2022-10-11T18:49:04.702Z,100230.48
2022-10-11T18:51:36.465Z,100228.02
2022-10-11T18:54:05.863Z,100230.45
2022-10-11T18:56:36.698Z,100230.08
2022-10-11T18:59:06.204Z,100232.86
2022-10-11T19:01:38.454Z,100236.67
2022-10-11T19:04:09.323Z,100235.92
2022-10-11T19:06:43.524Z,100236.07
2022-10-11T19:09:14.873Z,100239.34
2022-10-11T19:11:43.149Z,100239.80
2022-10-11T19:14:16.237Z,100238.67
2022-10-11T19:16:49.738Z,100245.98
2022-10-11T19:19:24.006Z,100244.94
2022-10-11T19:21:52.841Z,100248.04
2022-10-11T19:24:23.171Z,100250.11
2022-10-11T19:26:53.198Z,100245.38
2022-10-11T19:29:24.429Z,100251.99
2022-10-11T19:31:58.234Z,100255.63
2022-10-11T19:34:28.040Z,100260.48
2022-10-11T19:36:56.734Z,100259.23
2022-10-11T19:39:25.700Z,100264.23
2022-10-11T19:41:54.086Z,100263.66
2022-10-11T19:44:22.074Z,100261.52
2022-10-11T19:46:52.309Z,100261.64
2022-10-11T19:49:25.335Z,100262.89
2022-10-11T19:51:55.620Z,100264.44
2022-10-11T19:54:24.452Z,100266.66
2022-10-11T19:56:52.834Z,100269.59
2022-10-11T19:59:21.356Z,100274.98
2022-10-11T20:01:52.796Z,100276.85
2022-10-11T20:04:47.495Z,100279.80
2022-10-11T20:07:10.862Z,100277.17
2022-10-11T20:09:39.241Z,100281.13
2022-10-11T20:12:08.228Z,100281.25
2022-10-11T20:14:36.309Z,100281.39
2022-10-11T20:17:04.483Z,100279.96
2022-10-11T20:19:32.653Z,100277.55
2022-10-11T20:22:01.963Z,100277.36
2022-10-11T20:24:33.696Z,100279.42
2022-10-11T20:27:04.449Z,100281.31
2022-10-11T20:29:32.928Z,100283.19
2022-10-11T20:32:01.111Z,100284.88
2022-10-11T20:34:29.274Z,100282.92
2022-10-11T20:36:57.447Z,100281.83
2022-10-11T20:39:25.621Z,100280.05
2022-10-11T20:41:53.693Z,100285.75
2022-10-11T20:44:21.767Z,100286.23
2022-10-11T20:46:49.936Z,100287.08
2022-10-11T20:49:20.164Z,100287.29
2022-10-11T20:51:48.989Z,100286.41
2022-10-11T20:54:17.530Z,100285.34
2022-10-11T20:56:46.216Z,100289.87
2022-10-11T20:59:14.390Z,100289.17
2022-10-11T21:01:42.902Z,100295.05
2022-10-11T21:04:20.938Z,100294.29
2022-10-11T21:06:49.359Z,100294.39
2022-10-11T21:09:17.650Z,100297.27
2022-10-11T21:11:46.429Z,100295.05
2022-10-11T21:14:14.597Z,100297.75
2022-10-11T21:16:42.562Z,100300.04
2022-10-11T21:19:14.702Z,100305.75
2022-10-11T21:21:46.441Z,100304.83
2022-10-11T21:24:16.606Z,100305.45
2022-10-11T21:26:44.684Z,100308.19
2022-10-11T21:29:12.752Z,100305.52
2022-10-11T21:31:41.044Z,100307.43
2022-10-11T21:34:09.056Z,100305.34
2022-10-11T21:36:37.066Z,100304.75
2022-10-11T21:39:05.141Z,100304.86
2022-10-11T21:41:34.234Z,100308.80
2022-10-11T21:44:02.713Z,100306.48
2022-10-11T21:47:01.282Z,100307.39
2022-10-11T21:49:20.772Z,100308.59
2022-10-11T21:51:48.738Z,100307.89
2022-10-11T21:54:17.410Z,100312.70
2022-10-11T21:56:45.605Z,100310.52
2022-10-11T21:59:13.874Z,100307.31
2022-10-11T22:01:43.402Z,100309.04
2022-10-11T22:04:11.760Z,100311.59
2022-10-11T22:06:40.703Z,100310.69
2022-10-11T22:09:09.494Z,100306.80
2022-10-11T22:11:38.023Z,100304.14
2022-10-11T22:14:07.019Z,100305.83
2022-10-11T22:16:35.596Z,100300.89
2022-10-11T22:19:04.260Z,100300.87
2022-10-11T22:21:32.253Z,100303.08
2022-10-11T22:24:00.329Z,100305.36
2022-10-11T22:26:30.983Z,100304.71
2022-10-11T22:29:00.715Z,100307.77
2022-10-11T22:31:29.925Z,100305.95
2022-10-11T22:34:00.317Z,100303.36
2022-10-11T22:36:33.828Z,100307.38
2022-10-11T22:39:07.874Z,100304.02
2022-10-11T22:41:36.588Z,100302.64
2022-10-11T22:44:05.755Z,100303.96
2022-10-11T22:46:34.060Z,100304.14
2022-10-11T22:49:02.129Z,100303.30
2022-10-11T22:51:30.208Z,100302.20
2022-10-11T22:53:58.374Z,100299.99
2022-10-11T22:56:26.344Z,100303.48
2022-10-11T22:58:54.415Z,100305.36
2022-10-11T23:01:22.494Z,100304.14
2022-10-11T23:03:50.983Z,100302.35
2022-10-11T23:06:19.351Z,100304.73
2022-10-11T23:08:47.314Z,100307.11
2022-10-11T23:11:15.600Z,100310.20
2022-10-11T23:13:43.866Z,100308.71
2022-10-11T23:16:13.169Z,100307.16
2022-10-11T23:18:41.936Z,100306.76
2022-10-11T23:21:10.232Z,100309.02
2022-10-11T23:23:40.010Z,100310.92
2022-10-11T23:26:13.235Z,100310.39
2022-10-11T23:28:43.125Z,100310.66
2022-10-11T23:31:16.857Z,100307.67
2022-10-11T23:33:46.667Z,100305.84
2022-10-11T23:36:23.542Z,100309.77
2022-10-11T23:39:00.626Z,100313.15
2022-10-11T23:41:30.234Z,100314.86
2022-10-11T23:43:59.123Z,100316.59
2022-10-11T23:46:27.300Z,100314.74
2022-10-11T23:48:55.368Z,100318.71
2022-10-11T23:51:23.336Z,100318.23
2022-10-11T23:53:51.511Z,100317.73
2022-10-11T23:56:19.892Z,100319.88
2022-10-11T23:58:47.961Z,100321.02
